Terminal Aerodrome Forecast
Issued by NWS Grand Rapids, MI

Home | Current Version | Previous Version | Text Only | Print | Product List | Glossary On
Versions: 1 2 3 4 5 6 7 8 9 10 11 12 13 14 15 16 17 18 19 20 21 22 23 24
389
FTUS43 KGRR 011513 AAB
TAFGRR
TAF AMD
KGRR 011513Z 0115/0212 09009KT 2SM -DZ BR OVC005
     FM011900 09007KT 5SM BR VCTS OVC010CB
     FM012200 08005KT 5SM BR VCTS OVC020CB
     FM020000 VRB03KT 5SM BR BKN035=

USA.gov is the U.S. government's official web portal to all federal, state and local government web resources and services.